sensor_id;sensor_type;location;lat;lon;timestamp;temperature;humidity
935;DHT22;454;53.254;10.400;2023-05-10T04:02:20;12.40;99.90
935;DHT22;454;53.254;10.400;2023-05-10T04:04:47;12.40;99.90
935;DHT22;454;53.254;10.400;2023-05-10T04:07:14;12.50;99.90
935;DHT22;454;53.254;10.400;2023-05-10T04:09:40;12.50;99.90
935;DHT22;454;53.254;10.400;2023-05-10T04:12:07;12.50;99.90
935;DHT22;454;53.254;10.400;2023-05-10T04:14:33;12.50;99.90
935;DHT22;454;53.254;10.400;2023-05-10T04:17:00;12.50;99.90
935;DHT22;454;53.254;10.400;2023-05-10T04:19:30;12.50;99.90
935;DHT22;454;53.254;10.400;2023-05-10T04:21:57;12.50;99.90
935;DHT22;454;53.254;10.400;2023-05-10T04:24:23;12.50;99.90
935;DHT22;454;53.254;10.400;2023-05-10T04:26:50;12.50;99.90
935;DHT22;454;53.254;10.400;2023-05-10T04:29:17;12.60;99.90
935;DHT22;454;53.254;10.400;2023-05-10T04:31:43;12.70;99.90
935;DHT22;454;53.254;10.400;2023-05-10T04:34:10;12.70;99.90
935;DHT22;454;53.254;10.400;2023-05-10T04:36:38;12.80;99.90
935;DHT22;454;53.254;10.400;2023-05-10T04:39:05;12.90;99.90
935;DHT22;454;53.254;10.400;2023-05-10T04:41:31;13.00;99.90
935;DHT22;454;53.254;10.400;2023-05-10T04:43:58;13.20;99.90
935;DHT22;454;53.254;10.400;2023-05-10T04:46:25;13.30;99.90
935;DHT22;454;53.254;10.400;2023-05-10T04:48:51;13.20;99.90
935;DHT22;454;53.254;10.400;2023-05-10T04:51:18;13.30;99.90
935;DHT22;454;53.254;10.400;2023-05-10T04:53:47;13.50;99.90
935;DHT22;454;53.254;10.400;2023-05-10T04:56:13;13.60;99.90
935;DHT22;454;53.254;10.400;2023-05-10T04:58:41;13.80;99.90
935;DHT22;454;53.254;10.400;2023-05-10T05:01:08;14.10;99.90
935;DHT22;454;53.254;10.400;2023-05-10T05:03:36;14.10;99.90
935;DHT22;454;53.254;10.400;2023-05-10T05:06:03;14.10;99.90
935;DHT22;454;53.254;10.400;2023-05-10T05:08:30;14.00;99.90
935;DHT22;454;53.254;10.400;2023-05-10T05:10:58;13.90;99.90
935;DHT22;454;53.254;10.400;2023-05-10T05:13:24;13.80;99.90
935;DHT22;454;53.254;10.400;2023-05-10T05:15:51;13.70;99.90
935;DHT22;454;53.254;10.400;2023-05-10T05:18:18;13.70;99.90
935;DHT22;454;53.254;10.400;2023-05-10T05:20:45;13.80;99.90
935;DHT22;454;53.254;10.400;2023-05-10T05:23:12;13.90;99.90
935;DHT22;454;53.254;10.400;2023-05-10T05:25:38;13.90;99.90
935;DHT22;454;53.254;10.400;2023-05-10T05:28:06;14.00;99.90
935;DHT22;454;53.254;10.400;2023-05-10T05:30:33;14.00;99.90
935;DHT22;454;53.254;10.400;2023-05-10T05:32:59;14.00;99.90
935;DHT22;454;53.254;10.400;2023-05-10T05:35:26;13.90;99.90
935;DHT22;454;53.254;10.400;2023-05-10T05:37:53;13.90;99.90
935;DHT22;454;53.254;10.400;2023-05-10T05:40:20;13.90;99.90
935;DHT22;454;53.254;10.400;2023-05-10T05:42:46;14.00;99.90
935;DHT22;454;53.254;10.400;2023-05-10T05:45:14;14.00;99.90
935;DHT22;454;53.254;10.400;2023-05-10T05:47:41;14.10;99.90
935;DHT22;454;53.254;10.400;2023-05-10T05:50:09;14.10;99.90
935;DHT22;454;53.254;10.400;2023-05-10T05:52:36;14.10;99.90
935;DHT22;454;53.254;10.400;2023-05-10T05:55:03;14.10;99.90
935;DHT22;454;53.254;10.400;2023-05-10T05:57:30;14.10;99.90
935;DHT22;454;53.254;10.400;2023-05-10T05:59:56;14.30;99.90
935;DHT22;454;53.254;10.400;2023-05-10T06:02:24;14.40;99.90
935;DHT22;454;53.254;10.400;2023-05-10T06:04:51;14.50;99.90
935;DHT22;454;53.254;10.400;2023-05-10T06:07:18;14.70;99.90
935;DHT22;454;53.254;10.400;2023-05-10T06:09:44;14.90;99.90
935;DHT22;454;53.254;10.400;2023-05-10T06:12:11;15.10;99.90
935;DHT22;454;53.254;10.400;2023-05-10T06:14:38;15.40;99.90
935;DHT22;454;53.254;10.400;2023-05-10T06:17:04;15.60;99.90
935;DHT22;454;53.254;10.400;2023-05-10T06:19:33;15.90;99.90
935;DHT22;454;53.254;10.400;2023-05-10T06:22:00;16.40;99.90
935;DHT22;454;53.254;10.400;2023-05-10T06:24:26;16.90;99.90
935;DHT22;454;53.254;10.400;2023-05-10T06:26:53;17.50;99.90
935;DHT22;454;53.254;10.400;2023-05-10T06:29:20;17.90;99.90
935;DHT22;454;53.254;10.400;2023-05-10T06:31:47;17.90;99.90
935;DHT22;454;53.254;10.400;2023-05-10T06:34:13;17.30;99.90
935;DHT22;454;53.254;10.400;2023-05-10T06:36:41;16.80;99.90
935;DHT22;454;53.254;10.400;2023-05-10T06:39:08;16.60;99.90
935;DHT22;454;53.254;10.400;2023-05-10T06:41:37;16.40;99.90
935;DHT22;454;53.254;10.400;2023-05-10T06:44:03;16.20;99.90
935;DHT22;454;53.254;10.400;2023-05-10T06:46:30;16.20;99.90
935;DHT22;454;53.254;10.400;2023-05-10T06:48:57;16.20;99.90
935;DHT22;454;53.254;10.400;2023-05-10T06:51:23;16.20;99.90
935;DHT22;454;53.254;10.400;2023-05-10T06:53:51;16.20;99.90
935;DHT22;454;53.254;10.400;2023-05-10T06:56:18;16.20;99.90
935;DHT22;454;53.254;10.400;2023-05-10T06:58:46;16.10;99.90
935;DHT22;454;53.254;10.400;2023-05-10T07:01:13;16.30;99.90
935;DHT22;454;53.254;10.400;2023-05-10T07:03:40;16.50;99.90
935;DHT22;454;53.254;10.400;2023-05-10T07:06:07;16.60;99.90
935;DHT22;454;53.254;10.400;2023-05-10T07:08:34;16.80;99.90
935;DHT22;454;53.254;10.400;2023-05-10T07:11:03;16.70;99.90
935;DHT22;454;53.254;10.400;2023-05-10T07:13:30;16.60;99.90
935;DHT22;454;53.254;10.400;2023-05-10T07:15:57;16.40;99.90
935;DHT22;454;53.254;10.400;2023-05-10T07:18:24;16.40;99.90
935;DHT22;454;53.254;10.400;2023-05-10T07:20:51;16.40;99.90
935;DHT22;454;53.254;10.400;2023-05-10T07:23:18;16.40;99.90
935;DHT22;454;53.254;10.400;2023-05-10T07:25:45;16.50;99.90
935;DHT22;454;53.254;10.400;2023-05-10T07:28:13;16.70;99.90
935;DHT22;454;53.254;10.400;2023-05-10T07:30:40;17.00;99.90
935;DHT22;454;53.254;10.400;2023-05-10T07:33:07;17.10;99.90
935;DHT22;454;53.254;10.400;2023-05-10T07:35:34;17.20;99.90
935;DHT22;454;53.254;10.400;2023-05-10T07:38:01;17.20;99.90
935;DHT22;454;53.254;10.400;2023-05-10T07:40:29;17.20;99.90
935;DHT22;454;53.254;10.400;2023-05-10T07:42:55;17.20;99.90
935;DHT22;454;53.254;10.400;2023-05-10T07:45:23;17.10;99.90
935;DHT22;454;53.254;10.400;2023-05-10T07:47:50;17.10;99.90
935;DHT22;454;53.254;10.400;2023-05-10T07:50:17;17.10;99.90
935;DHT22;454;53.254;10.400;2023-05-10T07:52:43;17.00;99.90
935;DHT22;454;53.254;10.400;2023-05-10T07:55:10;16.90;99.90
935;DHT22;454;53.254;10.400;2023-05-10T07:57:37;16.80;99.90
935;DHT22;454;53.254;10.400;2023-05-10T08:00:05;16.90;99.90
935;DHT22;454;53.254;10.400;2023-05-10T08:02:35;16.90;99.90
935;DHT22;454;53.254;10.400;2023-05-10T08:05:01;17.00;99.90
935;DHT22;454;53.254;10.400;2023-05-10T08:07:28;17.20;99.90
935;DHT22;454;53.254;10.400;2023-05-10T08:09:55;17.20;99.90
935;DHT22;454;53.254;10.400;2023-05-10T08:12:22;17.30;99.90
935;DHT22;454;53.254;10.400;2023-05-10T08:14:48;17.40;99.90
935;DHT22;454;53.254;10.400;2023-05-10T08:17:15;17.50;99.90
935;DHT22;454;53.254;10.400;2023-05-10T08:19:43;17.70;99.90
935;DHT22;454;53.254;10.400;2023-05-10T08:22:09;17.80;99.90
935;DHT22;454;53.254;10.400;2023-05-10T08:24:36;17.80;99.90
935;DHT22;454;53.254;10.400;2023-05-10T08:27:04;17.90;99.90
935;DHT22;454;53.254;10.400;2023-05-10T08:29:31;18.00;99.90
935;DHT22;454;53.254;10.400;2023-05-10T08:31:57;18.10;99.90
935;DHT22;454;53.254;10.400;2023-05-10T08:34:24;18.10;99.90
935;DHT22;454;53.254;10.400;2023-05-10T08:36:52;18.10;99.90
935;DHT22;454;53.254;10.400;2023-05-10T08:39:19;17.90;99.90
935;DHT22;454;53.254;10.400;2023-05-10T08:41:46;17.90;99.90
935;DHT22;454;53.254;10.400;2023-05-10T08:44:15;17.80;99.90
935;DHT22;454;53.254;10.400;2023-05-10T08:46:46;17.60;99.90
935;DHT22;454;53.254;10.400;2023-05-10T08:49:14;17.40;99.90
935;DHT22;454;53.254;10.400;2023-05-10T08:51:46;17.30;99.90
935;DHT22;454;53.254;10.400;2023-05-10T08:54:17;17.10;99.90
935;DHT22;454;53.254;10.400;2023-05-10T08:56:44;17.10;99.90
935;DHT22;454;53.254;10.400;2023-05-10T08:59:11;17.20;99.90
935;DHT22;454;53.254;10.400;2023-05-10T09:01:40;17.20;99.90
935;DHT22;454;53.254;10.400;2023-05-10T09:04:06;17.20;99.90
935;DHT22;454;53.254;10.400;2023-05-10T09:06:33;17.30;99.90
935;DHT22;454;53.254;10.400;2023-05-10T09:09:01;17.30;99.90
935;DHT22;454;53.254;10.400;2023-05-10T09:11:30;17.30;99.90
935;DHT22;454;53.254;10.400;2023-05-10T09:13:56;17.30;99.90
935;DHT22;454;53.254;10.400;2023-05-10T09:16:23;17.20;99.90
935;DHT22;454;53.254;10.400;2023-05-10T09:18:50;17.20;99.90
935;DHT22;454;53.254;10.400;2023-05-10T09:21:18;17.10;99.90
935;DHT22;454;53.254;10.400;2023-05-10T09:23:46;16.90;99.90
935;DHT22;454;53.254;10.400;2023-05-10T09:26:13;17.00;99.90
935;DHT22;454;53.254;10.400;2023-05-10T09:28:52;17.10;99.90
935;DHT22;454;53.254;10.400;2023-05-10T09:31:19;17.10;99.90
935;DHT22;454;53.254;10.400;2023-05-10T09:33:46;17.20;99.90
935;DHT22;454;53.254;10.400;2023-05-10T09:36:14;17.30;99.90
935;DHT22;454;53.254;10.400;2023-05-10T09:38:47;17.30;99.90
935;DHT22;454;53.254;10.400;2023-05-10T09:41:18;17.20;99.90
935;DHT22;454;53.254;10.400;2023-05-10T09:43:46;17.20;99.90
935;DHT22;454;53.254;10.400;2023-05-10T09:46:14;17.10;99.90
935;DHT22;454;53.254;10.400;2023-05-10T09:48:42;17.00;99.90
935;DHT22;454;53.254;10.400;2023-05-10T09:51:10;17.10;99.90
935;DHT22;454;53.254;10.400;2023-05-10T09:53:36;17.00;99.90
935;DHT22;454;53.254;10.400;2023-05-10T09:56:03;16.90;99.90
935;DHT22;454;53.254;10.400;2023-05-10T09:58:30;16.90;99.90
935;DHT22;454;53.254;10.400;2023-05-10T10:00:57;16.90;99.90
935;DHT22;454;53.254;10.400;2023-05-10T10:03:25;16.90;99.90
935;DHT22;454;53.254;10.400;2023-05-10T10:05:52;16.90;99.90
935;DHT22;454;53.254;10.400;2023-05-10T10:08:21;17.00;99.90
935;DHT22;454;53.254;10.400;2023-05-10T10:10:49;17.00;99.90
935;DHT22;454;53.254;10.400;2023-05-10T10:13:17;17.00;99.90
935;DHT22;454;53.254;10.400;2023-05-10T10:15:43;16.90;99.90
935;DHT22;454;53.254;10.400;2023-05-10T10:18:13;16.80;99.90
935;DHT22;454;53.254;10.400;2023-05-10T10:20:42;16.70;99.90
935;DHT22;454;53.254;10.400;2023-05-10T10:23:09;16.60;99.90
935;DHT22;454;53.254;10.400;2023-05-10T10:25:36;16.50;99.90
935;DHT22;454;53.254;10.400;2023-05-10T10:28:12;16.40;99.90
935;DHT22;454;53.254;10.400;2023-05-10T10:30:45;16.10;99.90
935;DHT22;454;53.254;10.400;2023-05-10T10:33:33;15.90;99.90
935;DHT22;454;53.254;10.400;2023-05-10T10:36:05;15.70;99.90
935;DHT22;454;53.254;10.400;2023-05-10T10:38:59;15.60;99.90
935;DHT22;454;53.254;10.400;2023-05-10T10:41:31;15.60;99.90
935;DHT22;454;53.254;10.400;2023-05-10T10:44:25;15.50;99.90
935;DHT22;454;53.254;10.400;2023-05-10T10:46:59;15.30;99.90
935;DHT22;454;53.254;10.400;2023-05-10T10:49:26;15.30;99.90
935;DHT22;454;53.254;10.400;2023-05-10T10:52:20;15.20;99.90
935;DHT22;454;53.254;10.400;2023-05-10T10:54:50;15.00;99.90
935;DHT22;454;53.254;10.400;2023-05-10T10:57:18;14.90;99.90
935;DHT22;454;53.254;10.400;2023-05-10T10:59:47;14.90;99.90
935;DHT22;454;53.254;10.400;2023-05-10T11:02:37;14.80;99.90
935;DHT22;454;53.254;10.400;2023-05-10T11:05:38;14.80;99.90
935;DHT22;454;53.254;10.400;2023-05-10T11:08:28;14.60;99.90
935;DHT22;454;53.254;10.400;2023-05-10T11:11:05;14.60;99.90
935;DHT22;454;53.254;10.400;2023-05-10T11:13:39;14.60;99.90
935;DHT22;454;53.254;10.400;2023-05-10T11:16:14;14.60;99.90
935;DHT22;454;53.254;10.400;2023-05-10T11:18:52;14.60;99.90
935;DHT22;454;53.254;10.400;2023-05-10T11:21:19;14.70;99.90
935;DHT22;454;53.254;10.400;2023-05-10T11:23:50;14.60;99.90
935;DHT22;454;53.254;10.400;2023-05-10T11:26:17;14.60;99.90
935;DHT22;454;53.254;10.400;2023-05-10T11:28:45;14.70;99.90
935;DHT22;454;53.254;10.400;2023-05-10T11:31:14;14.80;99.90
935;DHT22;454;53.254;10.400;2023-05-10T11:33:42;14.70;99.90
935;DHT22;454;53.254;10.400;2023-05-10T11:36:11;14.80;99.90
935;DHT22;454;53.254;10.400;2023-05-10T11:38:38;15.00;99.90
935;DHT22;454;53.254;10.400;2023-05-10T11:41:08;15.10;99.90
935;DHT22;454;53.254;10.400;2023-05-10T11:43:34;15.10;99.90
935;DHT22;454;53.254;10.400;2023-05-10T11:46:04;15.00;99.90
935;DHT22;454;53.254;10.400;2023-05-10T11:48:31;15.00;99.90
935;DHT22;454;53.254;10.400;2023-05-10T11:50:57;15.00;99.90
935;DHT22;454;53.254;10.400;2023-05-10T11:53:26;15.00;99.90
935;DHT22;454;53.254;10.400;2023-05-10T11:55:53;15.20;99.90
935;DHT22;454;53.254;10.400;2023-05-10T11:58:21;15.40;99.90
935;DHT22;454;53.254;10.400;2023-05-10T12:00:49;15.40;99.90
935;DHT22;454;53.254;10.400;2023-05-10T12:03:16;15.50;99.90
935;DHT22;454;53.254;10.400;2023-05-10T12:05:43;15.50;99.90
935;DHT22;454;53.254;10.400;2023-05-10T12:08:14;15.60;99.90
935;DHT22;454;53.254;10.400;2023-05-10T12:10:41;15.50;99.90
935;DHT22;454;53.254;10.400;2023-05-10T12:13:11;15.60;99.90
935;DHT22;454;53.254;10.400;2023-05-10T12:15:41;15.40;99.90
935;DHT22;454;53.254;10.400;2023-05-10T12:18:08;15.40;99.90
935;DHT22;454;53.254;10.400;2023-05-10T12:20:35;15.40;99.90
935;DHT22;454;53.254;10.400;2023-05-10T12:23:03;15.40;99.90
935;DHT22;454;53.254;10.400;2023-05-10T12:25:32;15.40;99.90
935;DHT22;454;53.254;10.400;2023-05-10T12:28:02;15.50;99.90
935;DHT22;454;53.254;10.400;2023-05-10T12:30:30;15.50;99.90
935;DHT22;454;53.254;10.400;2023-05-10T12:33:01;15.60;99.90
935;DHT22;454;53.254;10.400;2023-05-10T12:35:30;15.60;99.90
935;DHT22;454;53.254;10.400;2023-05-10T12:37:57;15.60;99.90
935;DHT22;454;53.254;10.400;2023-05-10T12:40:24;15.60;99.90
935;DHT22;454;53.254;10.400;2023-05-10T12:42:51;15.60;99.90
935;DHT22;454;53.254;10.400;2023-05-10T12:45:18;15.60;99.90
935;DHT22;454;53.254;10.400;2023-05-10T12:47:44;15.80;99.90
935;DHT22;454;53.254;10.400;2023-05-10T12:50:12;15.80;99.90
935;DHT22;454;53.254;10.400;2023-05-10T12:52:39;15.90;99.90
935;DHT22;454;53.254;10.400;2023-05-10T12:55:06;15.90;99.90
935;DHT22;454;53.254;10.400;2023-05-10T12:57:33;15.90;99.90
935;DHT22;454;53.254;10.400;2023-05-10T13:00:00;15.90;99.90
935;DHT22;454;53.254;10.400;2023-05-10T13:02:26;15.90;99.90
935;DHT22;454;53.254;10.400;2023-05-10T13:04:53;15.90;99.90
935;DHT22;454;53.254;10.400;2023-05-10T13:07:21;15.90;99.90
935;DHT22;454;53.254;10.400;2023-05-10T13:09:48;15.90;99.90
935;DHT22;454;53.254;10.400;2023-05-10T13:12:14;16.00;99.90
935;DHT22;454;53.254;10.400;2023-05-10T13:14:41;16.10;99.90
935;DHT22;454;53.254;10.400;2023-05-10T13:17:07;16.20;99.90
935;DHT22;454;53.254;10.400;2023-05-10T13:19:34;16.30;99.90
935;DHT22;454;53.254;10.400;2023-05-10T13:22:02;16.40;99.90
935;DHT22;454;53.254;10.400;2023-05-10T13:24:30;16.50;99.90
935;DHT22;454;53.254;10.400;2023-05-10T13:26:57;16.40;99.90
935;DHT22;454;53.254;10.400;2023-05-10T13:29:24;16.50;99.90
935;DHT22;454;53.254;10.400;2023-05-10T13:31:50;16.60;99.90
935;DHT22;454;53.254;10.400;2023-05-10T13:34:17;16.60;99.90
935;DHT22;454;53.254;10.400;2023-05-10T13:36:46;16.70;99.90
935;DHT22;454;53.254;10.400;2023-05-10T13:39:12;16.70;99.90
935;DHT22;454;53.254;10.400;2023-05-10T13:41:40;16.80;99.90
935;DHT22;454;53.254;10.400;2023-05-10T13:44:07;16.90;99.90
935;DHT22;454;53.254;10.400;2023-05-10T13:46:34;16.90;99.90
935;DHT22;454;53.254;10.400;2023-05-10T13:49:00;16.80;99.90
935;DHT22;454;53.254;10.400;2023-05-10T13:51:27;16.90;99.90
935;DHT22;454;53.254;10.400;2023-05-10T13:53:54;16.90;99.90
935;DHT22;454;53.254;10.400;2023-05-10T13:56:20;17.00;99.90
935;DHT22;454;53.254;10.400;2023-05-10T13:58:48;17.10;99.90
935;DHT22;454;53.254;10.400;2023-05-10T14:01:15;17.20;99.90
935;DHT22;454;53.254;10.400;2023-05-10T14:03:42;17.30;99.90
935;DHT22;454;53.254;10.400;2023-05-10T14:06:08;17.30;99.90
935;DHT22;454;53.254;10.400;2023-05-10T14:08:35;17.30;99.90
935;DHT22;454;53.254;10.400;2023-05-10T14:11:02;17.40;99.90
935;DHT22;454;53.254;10.400;2023-05-10T14:13:29;17.50;99.90
935;DHT22;454;53.254;10.400;2023-05-10T14:15:57;17.60;99.90
935;DHT22;454;53.254;10.400;2023-05-10T14:18:25;17.70;99.90
935;DHT22;454;53.254;10.400;2023-05-10T14:20:52;17.80;99.90
935;DHT22;454;53.254;10.400;2023-05-10T14:23:19;17.90;99.90
935;DHT22;454;53.254;10.400;2023-05-10T14:25:49;17.90;99.90
935;DHT22;454;53.254;10.400;2023-05-10T14:28:16;17.80;99.90
935;DHT22;454;53.254;10.400;2023-05-10T14:30:43;17.70;99.90
935;DHT22;454;53.254;10.400;2023-05-10T14:33:11;17.60;99.90
935;DHT22;454;53.254;10.400;2023-05-10T14:35:38;17.70;99.90
935;DHT22;454;53.254;10.400;2023-05-10T14:38:05;17.80;99.90
935;DHT22;454;53.254;10.400;2023-05-10T14:40:32;17.90;99.90
935;DHT22;454;53.254;10.400;2023-05-10T14:42:58;18.00;99.90
935;DHT22;454;53.254;10.400;2023-05-10T14:45:26;18.10;99.90
935;DHT22;454;53.254;10.400;2023-05-10T14:47:52;18.10;99.90
935;DHT22;454;53.254;10.400;2023-05-10T14:50:20;18.10;99.90
935;DHT22;454;53.254;10.400;2023-05-10T14:52:47;18.10;99.90
935;DHT22;454;53.254;10.400;2023-05-10T14:55:14;18.20;99.90
935;DHT22;454;53.254;10.400;2023-05-10T14:57:41;18.10;99.90
935;DHT22;454;53.254;10.400;2023-05-10T15:00:10;18.10;99.90
935;DHT22;454;53.254;10.400;2023-05-10T15:02:37;18.20;99.90
935;DHT22;454;53.254;10.400;2023-05-10T15:05:04;18.40;99.90
935;DHT22;454;53.254;10.400;2023-05-10T15:07:32;18.40;99.90
935;DHT22;454;53.254;10.400;2023-05-10T15:09:59;18.30;99.90
935;DHT22;454;53.254;10.400;2023-05-10T15:12:26;18.40;99.90
935;DHT22;454;53.254;10.400;2023-05-10T15:14:52;18.40;99.90
935;DHT22;454;53.254;10.400;2023-05-10T15:17:19;18.30;99.90
935;DHT22;454;53.254;10.400;2023-05-10T15:19:46;18.20;99.90
935;DHT22;454;53.254;10.400;2023-05-10T15:22:14;18.20;99.90
935;DHT22;454;53.254;10.400;2023-05-10T15:24:42;18.20;99.90
935;DHT22;454;53.254;10.400;2023-05-10T15:27:09;18.10;99.90
935;DHT22;454;53.254;10.400;2023-05-10T15:29:35;18.20;99.90
935;DHT22;454;53.254;10.400;2023-05-10T15:32:02;18.20;99.90
935;DHT22;454;53.254;10.400;2023-05-10T15:34:29;18.10;99.90
935;DHT22;454;53.254;10.400;2023-05-10T15:36:55;18.10;99.90
935;DHT22;454;53.254;10.400;2023-05-10T15:39:22;18.10;99.90
935;DHT22;454;53.254;10.400;2023-05-10T15:41:50;18.00;99.90
935;DHT22;454;53.254;10.400;2023-05-10T15:44:17;17.90;99.90
935;DHT22;454;53.254;10.400;2023-05-10T15:46:44;18.00;99.90
935;DHT22;454;53.254;10.400;2023-05-10T15:49:11;18.00;99.90
935;DHT22;454;53.254;10.400;2023-05-10T15:51:37;18.00;99.90
935;DHT22;454;53.254;10.400;2023-05-10T15:54:04;18.10;99.90
935;DHT22;454;53.254;10.400;2023-05-10T15:56:32;17.90;99.90
935;DHT22;454;53.254;10.400;2023-05-10T15:59:00;17.90;99.90
935;DHT22;454;53.254;10.400;2023-05-10T16:01:28;17.80;99.90
935;DHT22;454;53.254;10.400;2023-05-10T16:03:55;17.80;99.90
935;DHT22;454;53.254;10.400;2023-05-10T16:06:21;17.80;99.90
935;DHT22;454;53.254;10.400;2023-05-10T16:08:48;17.80;99.90
935;DHT22;454;53.254;10.400;2023-05-10T16:11:15;17.80;99.90
935;DHT22;454;53.254;10.400;2023-05-10T16:13:42;17.70;99.90
935;DHT22;454;53.254;10.400;2023-05-10T16:16:10;17.60;99.90
935;DHT22;454;53.254;10.400;2023-05-10T16:18:37;17.50;99.90
935;DHT22;454;53.254;10.400;2023-05-10T16:21:03;17.40;99.90
935;DHT22;454;53.254;10.400;2023-05-10T16:23:30;17.40;99.90
935;DHT22;454;53.254;10.400;2023-05-10T16:25:57;17.50;99.90
935;DHT22;454;53.254;10.400;2023-05-10T16:28:23;17.50;99.90
935;DHT22;454;53.254;10.400;2023-05-10T16:30:50;17.50;99.90
935;DHT22;454;53.254;10.400;2023-05-10T16:33:18;17.40;99.90
935;DHT22;454;53.254;10.400;2023-05-10T16:35:45;17.40;99.90
935;DHT22;454;53.254;10.400;2023-05-10T16:38:11;17.50;99.90
935;DHT22;454;53.254;10.400;2023-05-10T16:40:39;17.40;99.90
935;DHT22;454;53.254;10.400;2023-05-10T16:43:06;17.50;99.90
935;DHT22;454;53.254;10.400;2023-05-10T16:45:33;17.50;99.90
935;DHT22;454;53.254;10.400;2023-05-10T16:47:59;17.60;99.90
935;DHT22;454;53.254;10.400;2023-05-10T16:50:27;17.50;99.90
935;DHT22;454;53.254;10.400;2023-05-10T16:52:54;17.40;99.90
935;DHT22;454;53.254;10.400;2023-05-10T16:55:21;17.40;99.90
935;DHT22;454;53.254;10.400;2023-05-10T16:57:48;17.50;99.90
935;DHT22;454;53.254;10.400;2023-05-10T17:00:15;17.50;99.90
935;DHT22;454;53.254;10.400;2023-05-10T17:02:42;17.50;99.90
935;DHT22;454;53.254;10.400;2023-05-10T17:05:09;17.50;99.90
935;DHT22;454;53.254;10.400;2023-05-10T17:07:37;17.50;99.90
935;DHT22;454;53.254;10.400;2023-05-10T17:10:05;17.50;99.90
935;DHT22;454;53.254;10.400;2023-05-10T17:12:31;17.50;99.90
935;DHT22;454;53.254;10.400;2023-05-10T17:14:58;17.40;99.90
935;DHT22;454;53.254;10.400;2023-05-10T17:17:25;17.40;99.90
935;DHT22;454;53.254;10.400;2023-05-10T17:19:52;17.40;99.90
935;DHT22;454;53.254;10.400;2023-05-10T17:22:18;17.40;99.90
935;DHT22;454;53.254;10.400;2023-05-10T17:24:46;17.40;99.90
935;DHT22;454;53.254;10.400;2023-05-10T17:27:13;17.40;99.90
935;DHT22;454;53.254;10.400;2023-05-10T17:29:40;17.40;99.90
935;DHT22;454;53.254;10.400;2023-05-10T17:32:07;17.40;99.90
935;DHT22;454;53.254;10.400;2023-05-10T17:34:34;17.30;99.90
935;DHT22;454;53.254;10.400;2023-05-10T17:37:01;17.30;99.90
935;DHT22;454;53.254;10.400;2023-05-10T17:39:28;17.20;99.90
935;DHT22;454;53.254;10.400;2023-05-10T17:41:56;17.20;99.90
935;DHT22;454;53.254;10.400;2023-05-10T17:44:23;17.10;99.90
935;DHT22;454;53.254;10.400;2023-05-10T17:46:50;17.10;99.90
935;DHT22;454;53.254;10.400;2023-05-10T17:49:17;17.10;99.90
935;DHT22;454;53.254;10.400;2023-05-10T17:51:43;17.00;99.90
935;DHT22;454;53.254;10.400;2023-05-10T17:54:12;17.00;99.90
935;DHT22;454;53.254;10.400;2023-05-10T17:56:39;16.90;99.90
935;DHT22;454;53.254;10.400;2023-05-10T17:59:07;16.90;99.90
935;DHT22;454;53.254;10.400;2023-05-10T18:01:33;16.90;99.90
935;DHT22;454;53.254;10.400;2023-05-10T18:04:00;16.80;99.90
935;DHT22;454;53.254;10.400;2023-05-10T18:06:27;16.80;99.90
935;DHT22;454;53.254;10.400;2023-05-10T18:08:54;16.80;99.90
935;DHT22;454;53.254;10.400;2023-05-10T18:11:21;16.80;99.90
935;DHT22;454;53.254;10.400;2023-05-10T18:13:47;16.80;99.90
935;DHT22;454;53.254;10.400;2023-05-10T18:16:17;16.80;99.90
935;DHT22;454;53.254;10.400;2023-05-10T18:18:43;16.80;99.90
935;DHT22;454;53.254;10.400;2023-05-10T18:21:10;16.70;99.90
935;DHT22;454;53.254;10.400;2023-05-10T18:23:37;16.70;99.90
935;DHT22;454;53.254;10.400;2023-05-10T18:26:04;16.70;99.90
935;DHT22;454;53.254;10.400;2023-05-10T18:28:30;16.70;99.90
935;DHT22;454;53.254;10.400;2023-05-10T18:30:57;16.70;99.90
935;DHT22;454;53.254;10.400;2023-05-10T18:33:25;16.70;99.90
935;DHT22;454;53.254;10.400;2023-05-10T18:35:52;16.60;99.90
935;DHT22;454;53.254;10.400;2023-05-10T18:38:18;16.60;99.90
935;DHT22;454;53.254;10.400;2023-05-10T18:40:45;16.50;99.90
935;DHT22;454;53.254;10.400;2023-05-10T18:43:12;16.40;99.90
935;DHT22;454;53.254;10.400;2023-05-10T18:45:39;16.40;99.90
935;DHT22;454;53.254;10.400;2023-05-10T18:48:05;16.40;99.90
935;DHT22;454;53.254;10.400;2023-05-10T18:50:34;16.30;99.90
935;DHT22;454;53.254;10.400;2023-05-10T18:53:00;16.30;99.90
935;DHT22;454;53.254;10.400;2023-05-10T18:55:28;16.30;99.90
935;DHT22;454;53.254;10.400;2023-05-10T18:57:55;16.20;99.90
935;DHT22;454;53.254;10.400;2023-05-10T19:00:21;16.20;99.90
935;DHT22;454;53.254;10.400;2023-05-10T19:02:48;16.20;99.90
935;DHT22;454;53.254;10.400;2023-05-10T19:05:15;16.10;99.90
935;DHT22;454;53.254;10.400;2023-05-10T19:07:43;16.10;99.90
935;DHT22;454;53.254;10.400;2023-05-10T19:10:10;16.10;99.90
935;DHT22;454;53.254;10.400;2023-05-10T19:12:40;16.00;99.90
935;DHT22;454;53.254;10.400;2023-05-10T19:15:08;15.90;99.90
935;DHT22;454;53.254;10.400;2023-05-10T19:17:35;15.90;99.90
935;DHT22;454;53.254;10.400;2023-05-10T19:20:03;15.80;99.90
935;DHT22;454;53.254;10.400;2023-05-10T19:22:30;15.80;99.90
935;DHT22;454;53.254;10.400;2023-05-10T19:24:58;15.70;99.90
935;DHT22;454;53.254;10.400;2023-05-10T19:27:25;15.70;99.90
935;DHT22;454;53.254;10.400;2023-05-10T19:29:52;15.60;99.90
935;DHT22;454;53.254;10.400;2023-05-10T19:32:19;15.60;99.90
935;DHT22;454;53.254;10.400;2023-05-10T19:34:45;15.50;99.90
935;DHT22;454;53.254;10.400;2023-05-10T19:37:12;15.50;99.90
935;DHT22;454;53.254;10.400;2023-05-10T19:39:39;15.50;99.90
935;DHT22;454;53.254;10.400;2023-05-10T19:42:07;15.50;99.90
935;DHT22;454;53.254;10.400;2023-05-10T19:44:33;15.40;99.90
935;DHT22;454;53.254;10.400;2023-05-10T19:47:00;15.30;99.90
935;DHT22;454;53.254;10.400;2023-05-10T19:49:29;15.30;99.90
935;DHT22;454;53.254;10.400;2023-05-10T19:51:55;15.20;99.90
935;DHT22;454;53.254;10.400;2023-05-10T19:54:22;15.20;99.90
935;DHT22;454;53.254;10.400;2023-05-10T19:56:49;15.20;99.90
935;DHT22;454;53.254;10.400;2023-05-10T19:59:17;15.10;99.90
935;DHT22;454;53.254;10.400;2023-05-10T20:01:43;15.10;99.90
935;DHT22;454;53.254;10.400;2023-05-10T20:04:10;15.10;99.90
935;DHT22;454;53.254;10.400;2023-05-10T20:06:37;15.00;99.90
935;DHT22;454;53.254;10.400;2023-05-10T20:09:04;15.00;99.90
935;DHT22;454;53.254;10.400;2023-05-10T20:11:30;14.90;99.90
935;DHT22;454;53.254;10.400;2023-05-10T20:13:57;14.90;99.90
935;DHT22;454;53.254;10.400;2023-05-10T20:16:25;14.90;99.90
935;DHT22;454;53.254;10.400;2023-05-10T20:18:52;14.80;99.90
935;DHT22;454;53.254;10.400;2023-05-10T20:21:19;14.80;99.90